sensor_id;sensor_type;location;lat;lon;timestamp;temperature;humidity
19522;DHT22;9905;52.126;5.596;2023-05-23T00:01:57;15.60;99.90
19522;DHT22;9905;52.126;5.596;2023-05-23T00:04:24;15.50;99.90
19522;DHT22;9905;52.126;5.596;2023-05-23T00:06:51;15.40;99.90
19522;DHT22;9905;52.126;5.596;2023-05-23T00:09:19;15.40;99.90
19522;DHT22;9905;52.126;5.596;2023-05-23T00:11:46;15.40;99.90
19522;DHT22;9905;52.126;5.596;2023-05-23T00:14:13;15.40;99.90
19522;DHT22;9905;52.126;5.596;2023-05-23T00:16:41;15.40;99.90
19522;DHT22;9905;52.126;5.596;2023-05-23T00:19:09;15.40;99.90
19522;DHT22;9905;52.126;5.596;2023-05-23T00:21:36;15.40;99.90
19522;DHT22;9905;52.126;5.596;2023-05-23T00:24:03;15.50;99.90
19522;DHT22;9905;52.126;5.596;2023-05-23T00:26:31;15.40;99.90
19522;DHT22;9905;52.126;5.596;2023-05-23T00:28:59;15.40;99.90
19522;DHT22;9905;52.126;5.596;2023-05-23T00:31:25;15.30;99.90
19522;DHT22;9905;52.126;5.596;2023-05-23T00:33:52;15.30;99.90
19522;DHT22;9905;52.126;5.596;2023-05-23T00:36:19;15.30;99.90
19522;DHT22;9905;52.126;5.596;2023-05-23T00:38:46;15.30;99.90
19522;DHT22;9905;52.126;5.596;2023-05-23T00:41:13;15.40;99.90
19522;DHT22;9905;52.126;5.596;2023-05-23T00:43:41;15.30;99.90
19522;DHT22;9905;52.126;5.596;2023-05-23T00:46:09;15.30;99.90
19522;DHT22;9905;52.126;5.596;2023-05-23T00:48:36;15.20;99.90
19522;DHT22;9905;52.126;5.596;2023-05-23T00:51:04;15.20;99.90
19522;DHT22;9905;52.126;5.596;2023-05-23T00:53:31;15.10;99.90
19522;DHT22;9905;52.126;5.596;2023-05-23T00:55:58;15.10;99.90
19522;DHT22;9905;52.126;5.596;2023-05-23T00:58:25;15.00;99.90
19522;DHT22;9905;52.126;5.596;2023-05-23T01:00:53;14.90;99.90
19522;DHT22;9905;52.126;5.596;2023-05-23T01:03:20;14.80;99.90
19522;DHT22;9905;52.126;5.596;2023-05-23T01:05:48;14.70;99.90
19522;DHT22;9905;52.126;5.596;2023-05-23T01:08:14;14.70;99.90
19522;DHT22;9905;52.126;5.596;2023-05-23T01:10:41;14.80;99.90
19522;DHT22;9905;52.126;5.596;2023-05-23T01:13:15;14.70;99.90
19522;DHT22;9905;52.126;5.596;2023-05-23T01:15:49;14.60;99.90
19522;DHT22;9905;52.126;5.596;2023-05-23T01:18:26;14.70;99.90
19522;DHT22;9905;52.126;5.596;2023-05-23T01:21:00;14.70;99.90
19522;DHT22;9905;52.126;5.596;2023-05-23T01:23:41;14.70;99.90
19522;DHT22;9905;52.126;5.596;2023-05-23T01:26:17;14.70;99.90
19522;DHT22;9905;52.126;5.596;2023-05-23T01:28:54;14.70;99.90
19522;DHT22;9905;52.126;5.596;2023-05-23T01:31:23;14.70;99.90
19522;DHT22;9905;52.126;5.596;2023-05-23T01:33:52;14.80;99.90
19522;DHT22;9905;52.126;5.596;2023-05-23T01:36:19;14.70;99.90
19522;DHT22;9905;52.126;5.596;2023-05-23T01:38:46;14.70;99.90
19522;DHT22;9905;52.126;5.596;2023-05-23T01:41:13;14.70;99.90
19522;DHT22;9905;52.126;5.596;2023-05-23T01:43:40;14.70;99.90
19522;DHT22;9905;52.126;5.596;2023-05-23T01:46:08;14.70;99.90
19522;DHT22;9905;52.126;5.596;2023-05-23T01:48:37;14.70;99.90
19522;DHT22;9905;52.126;5.596;2023-05-23T01:51:05;14.70;99.90
19522;DHT22;9905;52.126;5.596;2023-05-23T01:53:33;14.70;99.90
19522;DHT22;9905;52.126;5.596;2023-05-23T01:56:01;14.70;99.90
19522;DHT22;9905;52.126;5.596;2023-05-23T01:58:28;14.70;99.90
19522;DHT22;9905;52.126;5.596;2023-05-23T02:00:55;14.70;99.90
19522;DHT22;9905;52.126;5.596;2023-05-23T02:03:23;14.70;99.90
19522;DHT22;9905;52.126;5.596;2023-05-23T02:05:50;14.70;99.90
19522;DHT22;9905;52.126;5.596;2023-05-23T02:08:16;14.60;99.90
19522;DHT22;9905;52.126;5.596;2023-05-23T02:10:43;14.60;99.90
19522;DHT22;9905;52.126;5.596;2023-05-23T02:13:10;14.60;99.90
19522;DHT22;9905;52.126;5.596;2023-05-23T02:15:36;14.60;99.90
19522;DHT22;9905;52.126;5.596;2023-05-23T02:18:03;14.60;99.90
19522;DHT22;9905;52.126;5.596;2023-05-23T02:20:32;14.60;99.90
19522;DHT22;9905;52.126;5.596;2023-05-23T02:22:59;14.60;99.90
19522;DHT22;9905;52.126;5.596;2023-05-23T02:25:26;14.50;99.90
19522;DHT22;9905;52.126;5.596;2023-05-23T02:27:52;14.60;99.90
19522;DHT22;9905;52.126;5.596;2023-05-23T02:30:19;14.60;99.90
19522;DHT22;9905;52.126;5.596;2023-05-23T02:32:46;14.60;99.90
19522;DHT22;9905;52.126;5.596;2023-05-23T02:35:12;14.60;99.90
19522;DHT22;9905;52.126;5.596;2023-05-23T02:37:40;14.50;99.90
19522;DHT22;9905;52.126;5.596;2023-05-23T02:40:08;14.50;99.90
19522;DHT22;9905;52.126;5.596;2023-05-23T02:42:35;14.50;99.90
19522;DHT22;9905;52.126;5.596;2023-05-23T02:45:01;14.60;99.90
19522;DHT22;9905;52.126;5.596;2023-05-23T02:47:28;14.60;99.90
19522;DHT22;9905;52.126;5.596;2023-05-23T02:49:55;14.70;99.90
19522;DHT22;9905;52.126;5.596;2023-05-23T02:52:22;14.70;99.90
19522;DHT22;9905;52.126;5.596;2023-05-23T02:54:50;14.70;99.90
19522;DHT22;9905;52.126;5.596;2023-05-23T02:57:16;14.70;99.90
19522;DHT22;9905;52.126;5.596;2023-05-23T02:59:43;14.70;99.90
19522;DHT22;9905;52.126;5.596;2023-05-23T03:02:10;14.80;99.90
19522;DHT22;9905;52.126;5.596;2023-05-23T03:04:37;14.80;99.90
19522;DHT22;9905;52.126;5.596;2023-05-23T03:07:04;14.80;99.90
19522;DHT22;9905;52.126;5.596;2023-05-23T03:09:31;14.80;99.90
19522;DHT22;9905;52.126;5.596;2023-05-23T03:11:59;14.80;99.90
19522;DHT22;9905;52.126;5.596;2023-05-23T03:14:25;14.80;99.90
19522;DHT22;9905;52.126;5.596;2023-05-23T03:16:52;14.80;99.90
19522;DHT22;9905;52.126;5.596;2023-05-23T03:19:19;14.80;99.90
19522;DHT22;9905;52.126;5.596;2023-05-23T03:21:45;14.90;99.90
19522;DHT22;9905;52.126;5.596;2023-05-23T03:24:14;14.90;99.90
19522;DHT22;9905;52.126;5.596;2023-05-23T03:26:41;14.90;99.90
19522;DHT22;9905;52.126;5.596;2023-05-23T03:29:09;14.90;99.90
19522;DHT22;9905;52.126;5.596;2023-05-23T03:31:36;15.00;99.90
19522;DHT22;9905;52.126;5.596;2023-05-23T03:34:03;15.00;99.90
19522;DHT22;9905;52.126;5.596;2023-05-23T03:36:30;14.90;99.90
19522;DHT22;9905;52.126;5.596;2023-05-23T03:38:58;14.90;99.90
19522;DHT22;9905;52.126;5.596;2023-05-23T03:41:25;14.80;99.90
19522;DHT22;9905;52.126;5.596;2023-05-23T03:43:52;14.70;99.90
19522;DHT22;9905;52.126;5.596;2023-05-23T03:46:20;14.70;99.90
19522;DHT22;9905;52.126;5.596;2023-05-23T03:48:47;14.70;99.90
19522;DHT22;9905;52.126;5.596;2023-05-23T03:51:13;14.60;99.90
19522;DHT22;9905;52.126;5.596;2023-05-23T03:53:40;14.50;99.90
19522;DHT22;9905;52.126;5.596;2023-05-23T03:56:07;14.50;99.90
19522;DHT22;9905;52.126;5.596;2023-05-23T03:58:34;14.50;99.90
19522;DHT22;9905;52.126;5.596;2023-05-23T04:01:00;14.50;99.90
19522;DHT22;9905;52.126;5.596;2023-05-23T04:03:29;14.60;99.90
19522;DHT22;9905;52.126;5.596;2023-05-23T04:05:57;14.60;99.90
19522;DHT22;9905;52.126;5.596;2023-05-23T04:08:25;14.60;99.90
19522;DHT22;9905;52.126;5.596;2023-05-23T04:10:52;14.60;99.90
19522;DHT22;9905;52.126;5.596;2023-05-23T04:13:18;14.60;99.90
19522;DHT22;9905;52.126;5.596;2023-05-23T04:15:47;14.60;99.90
19522;DHT22;9905;52.126;5.596;2023-05-23T04:18:14;14.60;99.90
19522;DHT22;9905;52.126;5.596;2023-05-23T04:20:43;14.40;99.90
19522;DHT22;9905;52.126;5.596;2023-05-23T04:23:10;14.40;99.90
19522;DHT22;9905;52.126;5.596;2023-05-23T04:25:36;14.40;99.90
19522;DHT22;9905;52.126;5.596;2023-05-23T04:28:03;14.40;99.90
19522;DHT22;9905;52.126;5.596;2023-05-23T04:30:30;14.40;99.90
19522;DHT22;9905;52.126;5.596;2023-05-23T04:32:57;14.40;99.90
19522;DHT22;9905;52.126;5.596;2023-05-23T04:35:24;14.40;99.90
19522;DHT22;9905;52.126;5.596;2023-05-23T04:37:54;14.40;99.90
19522;DHT22;9905;52.126;5.596;2023-05-23T04:40:21;14.50;99.90
19522;DHT22;9905;52.126;5.596;2023-05-23T04:42:48;14.40;99.90
19522;DHT22;9905;52.126;5.596;2023-05-23T04:45:16;14.40;99.90
19522;DHT22;9905;52.126;5.596;2023-05-23T04:47:43;14.40;99.90
19522;DHT22;9905;52.126;5.596;2023-05-23T04:50:11;14.20;99.90
19522;DHT22;9905;52.126;5.596;2023-05-23T04:52:37;14.20;99.90
19522;DHT22;9905;52.126;5.596;2023-05-23T04:55:06;14.10;99.90
19522;DHT22;9905;52.126;5.596;2023-05-23T04:57:33;14.10;99.90
19522;DHT22;9905;52.126;5.596;2023-05-23T05:00:00;14.10;99.90
19522;DHT22;9905;52.126;5.596;2023-05-23T05:02:29;14.10;99.90
19522;DHT22;9905;52.126;5.596;2023-05-23T05:04:59;14.10;99.90
19522;DHT22;9905;52.126;5.596;2023-05-23T05:07:26;14.10;99.90
19522;DHT22;9905;52.126;5.596;2023-05-23T05:09:53;14.10;99.90
19522;DHT22;9905;52.126;5.596;2023-05-23T05:12:21;14.20;99.90
19522;DHT22;9905;52.126;5.596;2023-05-23T05:14:48;14.20;99.90
19522;DHT22;9905;52.126;5.596;2023-05-23T05:17:15;14.10;99.90
19522;DHT22;9905;52.126;5.596;2023-05-23T05:19:43;14.10;99.90
19522;DHT22;9905;52.126;5.596;2023-05-23T05:22:10;13.90;99.90
19522;DHT22;9905;52.126;5.596;2023-05-23T05:24:37;14.00;99.90
19522;DHT22;9905;52.126;5.596;2023-05-23T05:27:05;14.00;99.90
19522;DHT22;9905;52.126;5.596;2023-05-23T05:29:35;14.10;99.90
19522;DHT22;9905;52.126;5.596;2023-05-23T05:32:01;14.10;99.90
19522;DHT22;9905;52.126;5.596;2023-05-23T05:34:28;14.00;99.90
19522;DHT22;9905;52.126;5.596;2023-05-23T05:36:55;14.00;99.90
19522;DHT22;9905;52.126;5.596;2023-05-23T05:39:23;13.80;99.90
19522;DHT22;9905;52.126;5.596;2023-05-23T05:41:50;13.70;99.90
19522;DHT22;9905;52.126;5.596;2023-05-23T05:44:17;13.70;99.90
19522;DHT22;9905;52.126;5.596;2023-05-23T05:46:45;13.80;99.90
19522;DHT22;9905;52.126;5.596;2023-05-23T05:49:12;13.80;99.90
19522;DHT22;9905;52.126;5.596;2023-05-23T05:51:39;13.70;99.90
19522;DHT22;9905;52.126;5.596;2023-05-23T05:54:06;13.80;99.90
19522;DHT22;9905;52.126;5.596;2023-05-23T05:56:33;13.70;99.90
19522;DHT22;9905;52.126;5.596;2023-05-23T05:59:00;13.80;99.90
19522;DHT22;9905;52.126;5.596;2023-05-23T06:01:26;13.80;99.90
19522;DHT22;9905;52.126;5.596;2023-05-23T06:03:55;13.80;99.90
19522;DHT22;9905;52.126;5.596;2023-05-23T06:06:22;13.80;99.90
19522;DHT22;9905;52.126;5.596;2023-05-23T06:08:49;13.80;99.90
19522;DHT22;9905;52.126;5.596;2023-05-23T06:11:16;13.80;99.90
19522;DHT22;9905;52.126;5.596;2023-05-23T06:13:42;13.80;99.90
19522;DHT22;9905;52.126;5.596;2023-05-23T06:16:09;14.00;99.90
19522;DHT22;9905;52.126;5.596;2023-05-23T06:18:36;13.90;99.90
19522;DHT22;9905;52.126;5.596;2023-05-23T06:21:04;14.00;99.90
19522;DHT22;9905;52.126;5.596;2023-05-23T06:23:31;14.00;99.90
19522;DHT22;9905;52.126;5.596;2023-05-23T06:25:57;14.00;99.90
19522;DHT22;9905;52.126;5.596;2023-05-23T06:28:25;14.10;99.90
19522;DHT22;9905;52.126;5.596;2023-05-23T06:30:51;14.30;99.90
19522;DHT22;9905;52.126;5.596;2023-05-23T06:33:19;14.30;99.90
19522;DHT22;9905;52.126;5.596;2023-05-23T06:35:45;14.40;99.90
19522;DHT22;9905;52.126;5.596;2023-05-23T06:38:14;14.50;99.90
19522;DHT22;9905;52.126;5.596;2023-05-23T06:40:40;14.50;99.90
19522;DHT22;9905;52.126;5.596;2023-05-23T06:43:07;14.50;99.90
19522;DHT22;9905;52.126;5.596;2023-05-23T06:45:34;14.50;99.90
19522;DHT22;9905;52.126;5.596;2023-05-23T06:48:02;14.50;99.90
19522;DHT22;9905;52.126;5.596;2023-05-23T06:50:29;14.50;99.90
19522;DHT22;9905;52.126;5.596;2023-05-23T06:52:56;14.60;99.90
19522;DHT22;9905;52.126;5.596;2023-05-23T06:55:24;14.50;99.90
19522;DHT22;9905;52.126;5.596;2023-05-23T06:57:51;14.60;99.90
19522;DHT22;9905;52.126;5.596;2023-05-23T07:00:18;14.60;99.90
19522;DHT22;9905;52.126;5.596;2023-05-23T07:02:45;14.60;99.90
19522;DHT22;9905;52.126;5.596;2023-05-23T07:05:13;14.60;99.90
19522;DHT22;9905;52.126;5.596;2023-05-23T07:07:40;14.60;99.90
19522;DHT22;9905;52.126;5.596;2023-05-23T07:10:08;14.60;99.90
19522;DHT22;9905;52.126;5.596;2023-05-23T07:12:36;14.60;99.90
19522;DHT22;9905;52.126;5.596;2023-05-23T07:15:04;14.60;99.90
19522;DHT22;9905;52.126;5.596;2023-05-23T07:17:30;14.60;99.90
19522;DHT22;9905;52.126;5.596;2023-05-23T07:19:57;14.60;99.90
19522;DHT22;9905;52.126;5.596;2023-05-23T07:22:24;14.50;99.90
19522;DHT22;9905;52.126;5.596;2023-05-23T07:24:51;14.50;99.90
19522;DHT22;9905;52.126;5.596;2023-05-23T07:27:18;14.40;99.90
19522;DHT22;9905;52.126;5.596;2023-05-23T07:29:46;14.40;99.90
19522;DHT22;9905;52.126;5.596;2023-05-23T07:32:13;14.40;99.90
19522;DHT22;9905;52.126;5.596;2023-05-23T07:34:40;14.40;99.90
19522;DHT22;9905;52.126;5.596;2023-05-23T07:37:07;14.40;99.90
19522;DHT22;9905;52.126;5.596;2023-05-23T07:39:34;14.40;99.90
19522;DHT22;9905;52.126;5.596;2023-05-23T07:42:00;14.50;99.90
19522;DHT22;9905;52.126;5.596;2023-05-23T07:44:27;14.50;99.90
19522;DHT22;9905;52.126;5.596;2023-05-23T07:46:55;14.60;99.90
19522;DHT22;9905;52.126;5.596;2023-05-23T07:49:22;14.80;99.90
19522;DHT22;9905;52.126;5.596;2023-05-23T07:51:49;14.80;99.90
19522;DHT22;9905;52.126;5.596;2023-05-23T07:54:15;14.90;99.90
19522;DHT22;9905;52.126;5.596;2023-05-23T07:56:42;14.90;99.90
19522;DHT22;9905;52.126;5.596;2023-05-23T07:59:09;15.00;99.90
19522;DHT22;9905;52.126;5.596;2023-05-23T08:01:36;15.10;99.90
19522;DHT22;9905;52.126;5.596;2023-05-23T08:04:04;15.20;99.90
19522;DHT22;9905;52.126;5.596;2023-05-23T08:06:31;15.20;99.90
19522;DHT22;9905;52.126;5.596;2023-05-23T08:08:58;15.30;99.90
19522;DHT22;9905;52.126;5.596;2023-05-23T08:11:25;15.30;99.90
19522;DHT22;9905;52.126;5.596;2023-05-23T08:13:53;15.30;99.90
19522;DHT22;9905;52.126;5.596;2023-05-23T08:16:20;15.40;99.90
19522;DHT22;9905;52.126;5.596;2023-05-23T08:18:47;15.40;99.90
19522;DHT22;9905;52.126;5.596;2023-05-23T08:21:15;15.50;99.90
19522;DHT22;9905;52.126;5.596;2023-05-23T08:23:42;15.60;99.90
19522;DHT22;9905;52.126;5.596;2023-05-23T08:26:08;15.70;99.90
19522;DHT22;9905;52.126;5.596;2023-05-23T08:28:35;15.90;99.90
19522;DHT22;9905;52.126;5.596;2023-05-23T08:31:02;15.80;99.90
19522;DHT22;9905;52.126;5.596;2023-05-23T08:33:28;15.90;99.90
19522;DHT22;9905;52.126;5.596;2023-05-23T08:35:55;15.90;99.90
19522;DHT22;9905;52.126;5.596;2023-05-23T08:38:23;15.80;99.90
19522;DHT22;9905;52.126;5.596;2023-05-23T08:40:51;15.80;99.90
19522;DHT22;9905;52.126;5.596;2023-05-23T08:43:19;15.90;99.90
19522;DHT22;9905;52.126;5.596;2023-05-23T08:45:46;15.90;99.90
19522;DHT22;9905;52.126;5.596;2023-05-23T08:48:15;16.00;99.90
19522;DHT22;9905;52.126;5.596;2023-05-23T08:50:46;16.10;99.90
19522;DHT22;9905;52.126;5.596;2023-05-23T08:53:14;16.20;99.90
19522;DHT22;9905;52.126;5.596;2023-05-23T08:55:46;16.30;99.90
19522;DHT22;9905;52.126;5.596;2023-05-23T08:58:13;16.10;99.90
19522;DHT22;9905;52.126;5.596;2023-05-23T09:00:41;16.20;99.90
19522;DHT22;9905;52.126;5.596;2023-05-23T09:03:09;16.20;99.90
19522;DHT22;9905;52.126;5.596;2023-05-23T09:05:37;16.30;99.90
19522;DHT22;9905;52.126;5.596;2023-05-23T09:08:04;16.50;99.90
19522;DHT22;9905;52.126;5.596;2023-05-23T09:10:31;16.50;99.90
19522;DHT22;9905;52.126;5.596;2023-05-23T09:12:59;16.50;99.90
19522;DHT22;9905;52.126;5.596;2023-05-23T09:15:26;16.60;99.90
19522;DHT22;9905;52.126;5.596;2023-05-23T09:17:58;16.60;99.90
19522;DHT22;9905;52.126;5.596;2023-05-23T09:20:26;16.70;99.90
19522;DHT22;9905;52.126;5.596;2023-05-23T09:22:54;16.70;99.90
19522;DHT22;9905;52.126;5.596;2023-05-23T09:25:21;16.80;99.90
19522;DHT22;9905;52.126;5.596;2023-05-23T09:27:48;16.80;99.90
19522;DHT22;9905;52.126;5.596;2023-05-23T09:30:16;16.80;99.90
19522;DHT22;9905;52.126;5.596;2023-05-23T09:32:57;16.70;99.90
19522;DHT22;9905;52.126;5.596;2023-05-23T09:35:24;16.80;99.90
19522;DHT22;9905;52.126;5.596;2023-05-23T09:37:53;16.70;99.90
19522;DHT22;9905;52.126;5.596;2023-05-23T09:40:28;16.80;99.90
19522;DHT22;9905;52.126;5.596;2023-05-23T09:43:01;17.10;99.90
19522;DHT22;9905;52.126;5.596;2023-05-23T09:45:30;17.30;99.90
19522;DHT22;9905;52.126;5.596;2023-05-23T09:47:57;17.40;99.90
19522;DHT22;9905;52.126;5.596;2023-05-23T09:50:25;17.60;99.90
19522;DHT22;9905;52.126;5.596;2023-05-23T09:52:56;17.60;99.90
19522;DHT22;9905;52.126;5.596;2023-05-23T09:55:22;17.70;99.90
19522;DHT22;9905;52.126;5.596;2023-05-23T09:57:52;17.90;99.90
19522;DHT22;9905;52.126;5.596;2023-05-23T10:00:22;18.10;99.90
19522;DHT22;9905;52.126;5.596;2023-05-23T10:02:58;18.40;99.90
19522;DHT22;9905;52.126;5.596;2023-05-23T10:05:34;18.50;99.90
19522;DHT22;9905;52.126;5.596;2023-05-23T10:08:07;18.70;99.90
19522;DHT22;9905;52.126;5.596;2023-05-23T10:13:55;18.60;99.90
19522;DHT22;9905;52.126;5.596;2023-05-23T10:16:37;18.50;99.90
19522;DHT22;9905;52.126;5.596;2023-05-23T10:19:14;18.50;99.90
19522;DHT22;9905;52.126;5.596;2023-05-23T10:21:45;18.60;99.90
19522;DHT22;9905;52.126;5.596;2023-05-23T10:24:15;18.80;99.90
19522;DHT22;9905;52.126;5.596;2023-05-23T10:26:43;18.70;99.90
19522;DHT22;9905;52.126;5.596;2023-05-23T10:29:10;18.60;99.90
19522;DHT22;9905;52.126;5.596;2023-05-23T10:31:37;18.70;99.90
19522;DHT22;9905;52.126;5.596;2023-05-23T10:34:17;18.90;99.90
19522;DHT22;9905;52.126;5.596;2023-05-23T10:36:54;18.90;99.90
19522;DHT22;9905;52.126;5.596;2023-05-23T10:39:35;18.90;99.90
19522;DHT22;9905;52.126;5.596;2023-05-23T10:42:10;18.90;99.90
19522;DHT22;9905;52.126;5.596;2023-05-23T10:44:39;19.20;99.90
19522;DHT22;9905;52.126;5.596;2023-05-23T10:47:05;19.40;99.90
19522;DHT22;9905;52.126;5.596;2023-05-23T10:49:41;19.50;99.90
19522;DHT22;9905;52.126;5.596;2023-05-23T10:52:10;19.50;99.90
19522;DHT22;9905;52.126;5.596;2023-05-23T10:54:41;19.60;99.90
19522;DHT22;9905;52.126;5.596;2023-05-23T10:57:09;19.70;99.90
19522;DHT22;9905;52.126;5.596;2023-05-23T10:59:37;19.50;99.90
19522;DHT22;9905;52.126;5.596;2023-05-23T11:02:08;19.30;99.90
19522;DHT22;9905;52.126;5.596;2023-05-23T11:04:41;18.90;99.90
19522;DHT22;9905;52.126;5.596;2023-05-23T11:07:27;18.90;99.90
19522;DHT22;9905;52.126;5.596;2023-05-23T11:10:07;19.20;99.90
19522;DHT22;9905;52.126;5.596;2023-05-23T11:12:38;19.30;99.90
19522;DHT22;9905;52.126;5.596;2023-05-23T11:15:26;19.20;99.90
19522;DHT22;9905;52.126;5.596;2023-05-23T11:17:54;18.80;99.90
19522;DHT22;9905;52.126;5.596;2023-05-23T11:20:23;18.70;99.90
19522;DHT22;9905;52.126;5.596;2023-05-23T11:22:53;18.50;99.90
19522;DHT22;9905;52.126;5.596;2023-05-23T11:25:20;18.50;99.90
19522;DHT22;9905;52.126;5.596;2023-05-23T11:27:48;18.90;99.90
19522;DHT22;9905;52.126;5.596;2023-05-23T11:30:16;19.20;99.90
19522;DHT22;9905;52.126;5.596;2023-05-23T11:32:51;19.30;99.90
19522;DHT22;9905;52.126;5.596;2023-05-23T11:35:19;19.30;99.90
19522;DHT22;9905;52.126;5.596;2023-05-23T11:37:48;19.50;99.90
19522;DHT22;9905;52.126;5.596;2023-05-23T11:40:25;19.80;99.90
19522;DHT22;9905;52.126;5.596;2023-05-23T11:42:53;19.70;99.90
19522;DHT22;9905;52.126;5.596;2023-05-23T11:45:19;19.60;99.90
19522;DHT22;9905;52.126;5.596;2023-05-23T11:47:46;19.70;99.90
19522;DHT22;9905;52.126;5.596;2023-05-23T11:50:14;20.00;99.90
19522;DHT22;9905;52.126;5.596;2023-05-23T11:52:41;20.20;99.90
19522;DHT22;9905;52.126;5.596;2023-05-23T11:55:09;20.20;99.90
19522;DHT22;9905;52.126;5.596;2023-05-23T11:57:37;20.20;99.90
19522;DHT22;9905;52.126;5.596;2023-05-23T12:00:05;20.10;99.90
19522;DHT22;9905;52.126;5.596;2023-05-23T12:02:37;20.10;99.90
19522;DHT22;9905;52.126;5.596;2023-05-23T12:05:08;20.10;99.90
19522;DHT22;9905;52.126;5.596;2023-05-23T12:07:38;20.10;99.90
19522;DHT22;9905;52.126;5.596;2023-05-23T12:10:06;20.20;99.90
19522;DHT22;9905;52.126;5.596;2023-05-23T12:12:34;20.10;99.90
19522;DHT22;9905;52.126;5.596;2023-05-23T12:15:02;20.10;99.90
19522;DHT22;9905;52.126;5.596;2023-05-23T12:17:29;20.00;99.90
19522;DHT22;9905;52.126;5.596;2023-05-23T12:19:57;19.90;99.90
19522;DHT22;9905;52.126;5.596;2023-05-23T12:22:24;19.80;99.90
19522;DHT22;9905;52.126;5.596;2023-05-23T12:24:52;19.30;99.90
19522;DHT22;9905;52.126;5.596;2023-05-23T12:27:26;19.50;99.90
19522;DHT22;9905;52.126;5.596;2023-05-23T12:30:05;19.70;99.90
19522;DHT22;9905;52.126;5.596;2023-05-23T12:32:33;19.50;99.90
19522;DHT22;9905;52.126;5.596;2023-05-23T12:35:00;19.40;99.90
19522;DHT22;9905;52.126;5.596;2023-05-23T12:37:27;19.40;99.90
19522;DHT22;9905;52.126;5.596;2023-05-23T12:39:55;19.60;99.90
19522;DHT22;9905;52.126;5.596;2023-05-23T12:42:22;19.90;99.90
19522;DHT22;9905;52.126;5.596;2023-05-23T12:44:50;20.10;99.90
19522;DHT22;9905;52.126;5.596;2023-05-23T12:47:19;20.40;99.90
19522;DHT22;9905;52.126;5.596;2023-05-23T12:49:45;20.30;99.90
19522;DHT22;9905;52.126;5.596;2023-05-23T12:52:13;20.00;99.90
19522;DHT22;9905;52.126;5.596;2023-05-23T12:54:39;19.10;99.90
19522;DHT22;9905;52.126;5.596;2023-05-23T12:57:06;18.70;99.90
19522;DHT22;9905;52.126;5.596;2023-05-23T12:59:33;18.90;99.90
19522;DHT22;9905;52.126;5.596;2023-05-23T13:02:00;19.20;99.90
19522;DHT22;9905;52.126;5.596;2023-05-23T13:04:28;19.60;99.90
19522;DHT22;9905;52.126;5.596;2023-05-23T13:06:55;19.80;99.90
19522;DHT22;9905;52.126;5.596;2023-05-23T13:09:22;19.70;99.90
19522;DHT22;9905;52.126;5.596;2023-05-23T13:11:48;19.90;99.90
19522;DHT22;9905;52.126;5.596;2023-05-23T13:14:15;20.00;99.90
19522;DHT22;9905;52.126;5.596;2023-05-23T13:16:42;19.90;99.90
19522;DHT22;9905;52.126;5.596;2023-05-23T13:19:09;19.80;99.90
19522;DHT22;9905;52.126;5.596;2023-05-23T13:21:38;19.70;99.90
19522;DHT22;9905;52.126;5.596;2023-05-23T13:24:05;19.70;99.90
19522;DHT22;9905;52.126;5.596;2023-05-23T13:26:33;19.90;99.90
19522;DHT22;9905;52.126;5.596;2023-05-23T13:29:00;20.00;99.90
19522;DHT22;9905;52.126;5.596;2023-05-23T13:31:26;20.10;99.90
19522;DHT22;9905;52.126;5.596;2023-05-23T13:33:53;20.20;99.90
19522;DHT22;9905;52.126;5.596;2023-05-23T13:36:20;19.90;99.90
19522;DHT22;9905;52.126;5.596;2023-05-23T13:38:48;19.70;99.90
19522;DHT22;9905;52.126;5.596;2023-05-23T13:41:15;19.90;99.90
19522;DHT22;9905;52.126;5.596;2023-05-23T13:43:42;19.50;99.90
19522;DHT22;9905;52.126;5.596;2023-05-23T13:46:09;19.50;99.90
19522;DHT22;9905;52.126;5.596;2023-05-23T13:48:35;19.30;99.90
19522;DHT22;9905;52.126;5.596;2023-05-23T13:51:02;19.30;99.90
19522;DHT22;9905;52.126;5.596;2023-05-23T13:53:29;19.30;99.90
19522;DHT22;9905;52.126;5.596;2023-05-23T13:55:57;19.40;99.90
19522;DHT22;9905;52.126;5.596;2023-05-23T13:58:24;19.70;99.90
19522;DHT22;9905;52.126;5.596;2023-05-23T14:00:51;20.00;99.90
19522;DHT22;9905;52.126;5.596;2023-05-23T14:03:18;20.10;99.90
19522;DHT22;9905;52.126;5.596;2023-05-23T14:05:45;20.00;99.90
19522;DHT22;9905;52.126;5.596;2023-05-23T14:08:12;19.80;99.90
19522;DHT22;9905;52.126;5.596;2023-05-23T14:10:39;19.80;99.90
19522;DHT22;9905;52.126;5.596;2023-05-23T14:13:07;20.00;99.90
19522;DHT22;9905;52.126;5.596;2023-05-23T14:15:34;20.10;99.90
19522;DHT22;9905;52.126;5.596;2023-05-23T14:18:02;20.10;99.90
19522;DHT22;9905;52.126;5.596;2023-05-23T14:20:29;20.30;99.90
19522;DHT22;9905;52.126;5.596;2023-05-23T14:22:57;20.60;99.90
19522;DHT22;9905;52.126;5.596;2023-05-23T14:25:24;20.90;99.90
19522;DHT22;9905;52.126;5.596;2023-05-23T14:27:51;21.10;99.90
19522;DHT22;9905;52.126;5.596;2023-05-23T14:30:19;20.90;99.90
19522;DHT22;9905;52.126;5.596;2023-05-23T14:32:45;20.60;99.90
19522;DHT22;9905;52.126;5.596;2023-05-23T14:35:12;20.20;99.90
19522;DHT22;9905;52.126;5.596;2023-05-23T14:37:39;20.20;99.90
19522;DHT22;9905;52.126;5.596;2023-05-23T14:40:07;19.70;99.90
19522;DHT22;9905;52.126;5.596;2023-05-23T14:42:34;19.80;99.90
19522;DHT22;9905;52.126;5.596;2023-05-23T14:45:01;19.90;99.90
19522;DHT22;9905;52.126;5.596;2023-05-23T14:47:30;20.20;99.90
19522;DHT22;9905;52.126;5.596;2023-05-23T14:49:57;20.20;99.90
19522;DHT22;9905;52.126;5.596;2023-05-23T14:52:24;20.10;99.90
19522;DHT22;9905;52.126;5.596;2023-05-23T14:54:51;20.30;99.90
19522;DHT22;9905;52.126;5.596;2023-05-23T14:57:17;20.50;99.90
19522;DHT22;9905;52.126;5.596;2023-05-23T14:59:44;20.60;99.90
19522;DHT22;9905;52.126;5.596;2023-05-23T15:02:11;20.70;99.90
19522;DHT22;9905;52.126;5.596;2023-05-23T15:04:40;20.80;99.90
19522;DHT22;9905;52.126;5.596;2023-05-23T15:07:07;20.80;99.90
19522;DHT22;9905;52.126;5.596;2023-05-23T15:09:34;21.10;99.90
19522;DHT22;9905;52.126;5.596;2023-05-23T15:12:00;21.10;99.90
19522;DHT22;9905;52.126;5.596;2023-05-23T15:14:29;20.70;99.90
19522;DHT22;9905;52.126;5.596;2023-05-23T15:16:56;20.70;99.90
19522;DHT22;9905;52.126;5.596;2023-05-23T15:19:32;21.00;99.90
19522;DHT22;9905;52.126;5.596;2023-05-23T15:22:00;21.20;99.90
19522;DHT22;9905;52.126;5.596;2023-05-23T15:24:27;21.50;99.90
19522;DHT22;9905;52.126;5.596;2023-05-23T15:26:53;21.70;99.90
19522;DHT22;9905;52.126;5.596;2023-05-23T15:29:20;21.60;99.90
19522;DHT22;9905;52.126;5.596;2023-05-23T15:31:49;21.40;99.90
19522;DHT22;9905;52.126;5.596;2023-05-23T15:34:16;21.00;99.90
19522;DHT22;9905;52.126;5.596;2023-05-23T15:36:43;20.90;99.90
19522;DHT22;9905;52.126;5.596;2023-05-23T15:39:11;20.90;99.90
19522;DHT22;9905;52.126;5.596;2023-05-23T15:41:38;21.00;99.90
19522;DHT22;9905;52.126;5.596;2023-05-23T15:44:05;21.00;99.90
19522;DHT22;9905;52.126;5.596;2023-05-23T15:46:32;20.70;99.90
19522;DHT22;9905;52.126;5.596;2023-05-23T15:48:58;20.60;99.90
19522;DHT22;9905;52.126;5.596;2023-05-23T15:51:25;20.10;99.90
19522;DHT22;9905;52.126;5.596;2023-05-23T15:53:52;19.90;99.90